createdAt,value
2023-06-22T00:00:23.213Z,25.43
2023-06-22T00:05:47.982Z,26.12
2023-06-22T00:10:50.762Z,26.72
2023-06-22T00:15:55.672Z,26.27
2023-06-22T00:20:59.564Z,25.46
2023-06-22T00:26:04.022Z,26.30
2023-06-22T00:31:06.971Z,26.81
2023-06-22T00:36:09.773Z,27.24
2023-06-22T00:41:15.194Z,26.58
2023-06-22T00:46:20.795Z,24.95
2023-06-22T00:51:25.532Z,25.18
2023-06-22T00:56:33.907Z,26.77
2023-06-22T01:01:44.135Z,27.29
2023-06-22T01:07:24.185Z,27.63
2023-06-22T01:12:35.973Z,27.67
2023-06-22T01:17:44.061Z,27.74
2023-06-22T01:23:36.305Z,26.48
2023-06-22T01:28:51.180Z,24.75
2023-06-22T01:33:59.260Z,25.16
2023-06-22T01:39:06.424Z,26.74
2023-06-22T01:44:12.555Z,27.03
2023-06-22T01:49:16.336Z,27.31
2023-06-22T01:54:21.402Z,26.88
2023-06-22T01:59:42.646Z,25.19
2023-06-22T02:05:11.647Z,25.30
2023-06-22T02:10:21.005Z,26.50
2023-06-22T02:15:26.785Z,26.82
2023-06-22T02:20:30.220Z,27.06
2023-06-22T02:25:34.196Z,26.52
2023-06-22T02:30:36.984Z,24.76
2023-06-22T02:35:40.879Z,24.61
2023-06-22T02:40:47.910Z,25.99
2023-06-22T02:45:51.781Z,26.30
2023-06-22T02:50:54.530Z,26.60
2023-06-22T02:55:57.431Z,25.89
2023-06-22T03:01:05.907Z,24.20
2023-06-22T03:06:15.359Z,24.32
2023-06-22T03:11:18.320Z,26.14
2023-06-22T03:16:22.640Z,26.93
2023-06-22T03:21:30.109Z,26.54
2023-06-22T03:26:33.217Z,26.46
2023-06-22T03:31:37.199Z,26.58
2023-06-22T03:36:46.606Z,26.83
2023-06-22T03:41:52.720Z,27.15
2023-06-22T03:46:55.356Z,27.48
2023-06-22T03:52:00.608Z,27.91
2023-06-22T03:57:08.347Z,28.45
2023-06-22T04:02:11.100Z,28.94
2023-06-22T04:07:14.121Z,29.36
2023-06-22T04:12:19.023Z,29.82
2023-06-22T04:17:21.985Z,30.24
2023-06-22T04:22:24.639Z,30.32
2023-06-22T04:27:27.893Z,30.17
2023-06-22T04:32:30.637Z,30.03
2023-06-22T04:37:34.920Z,29.54
2023-06-22T04:42:40.728Z,29.15
2023-06-22T04:47:44.036Z,29.21
2023-06-22T04:52:51.612Z,28.84
2023-06-22T04:57:56.722Z,28.39
2023-06-22T05:03:14.889Z,29.03
2023-06-22T05:08:29.948Z,29.25
2023-06-22T05:13:33.239Z,28.46
2023-06-22T05:18:40.467Z,27.71
2023-06-22T05:24:09.295Z,27.35
2023-06-22T05:29:11.991Z,26.79
2023-06-22T05:34:20.590Z,26.20
2023-06-22T05:39:24.688Z,25.49
2023-06-22T05:44:27.382Z,24.94
2023-06-22T05:49:33.736Z,24.68
2023-06-22T05:54:39.614Z,24.54
2023-06-22T05:59:42.379Z,24.32
2023-06-22T06:04:47.092Z,24.01
2023-06-22T06:09:51.064Z,23.67
2023-06-22T06:14:57.698Z,24.48
2023-06-22T06:20:03.601Z,25.75
2023-06-22T06:25:08.350Z,24.82
2023-06-22T06:30:15.997Z,24.25
2023-06-22T06:35:25.318Z,23.93
2023-06-22T06:40:31.087Z,25.00
2023-06-22T06:45:35.921Z,24.37
2023-06-22T06:50:41.808Z,23.96
2023-06-22T06:55:49.287Z,25.80
2023-06-22T07:00:52.174Z,26.52
2023-06-22T07:05:57.616Z,27.19
2023-06-22T07:11:02.134Z,26.93
2023-06-22T07:16:06.753Z,26.26
2023-06-22T07:21:09.537Z,25.48
2023-06-22T07:26:13.824Z,24.76
2023-06-22T07:31:18.960Z,24.26
2023-06-22T07:36:24.249Z,23.98
2023-06-22T07:41:27.146Z,24.69
2023-06-22T07:46:33.111Z,25.94
2023-06-22T07:51:36.223Z,24.78
2023-06-22T07:56:44.629Z,24.02
2023-06-22T08:01:50.493Z,23.77
2023-06-22T08:06:53.409Z,25.01
2023-06-22T08:11:57.770Z,24.52
2023-06-22T08:17:00.532Z,23.89
2023-06-22T08:22:03.480Z,23.91
2023-06-22T08:27:15.813Z,25.46
2023-06-22T08:32:18.926Z,24.86
2023-06-22T08:37:24.839Z,24.19
2023-06-22T08:42:28.396Z,23.86
2023-06-22T08:47:31.586Z,23.50
2023-06-22T08:52:35.864Z,24.28
2023-06-22T08:57:40.471Z,25.86
2023-06-22T09:02:50.238Z,25.56
2023-06-22T09:08:01.191Z,26.96
2023-06-22T09:13:06.750Z,28.95
2023-06-22T09:18:12.849Z,30.24
2023-06-22T09:23:15.938Z,31.39
2023-06-22T09:28:22.954Z,32.37
2023-06-22T09:33:27.746Z,32.57
2023-06-22T09:38:30.548Z,32.70
2023-06-22T09:43:37.269Z,32.95
2023-06-22T09:48:43.242Z,33.24
2023-06-22T09:53:46.118Z,33.46
2023-06-22T09:58:52.089Z,33.58
2023-06-22T10:04:03.930Z,33.51
2023-06-22T10:09:07.715Z,33.43
2023-06-22T10:14:11.682Z,33.35
2023-06-22T10:19:14.588Z,33.16
2023-06-22T10:24:17.463Z,33.53
2023-06-22T10:29:22.115Z,33.74
2023-06-22T10:34:24.799Z,32.78
2023-06-22T10:39:27.521Z,31.51
2023-06-22T10:44:30.227Z,30.28
2023-06-22T10:49:35.409Z,29.65
2023-06-22T10:54:39.895Z,29.52
2023-06-22T10:59:45.365Z,29.40
2023-06-22T11:04:51.171Z,29.12
2023-06-22T11:09:54.140Z,28.81
2023-06-22T11:23:15.387Z,28.76
2023-06-22T11:28:33.075Z,28.77
2023-06-22T11:34:14.929Z,28.89
2023-06-22T11:40:06.283Z,28.94
2023-06-22T11:45:42.654Z,28.71
2023-06-22T12:08:10.166Z,28.21
2023-06-22T12:13:41.340Z,28.05
2023-06-22T12:18:44.045Z,28.00
2023-06-22T12:25:15.496Z,28.03
2023-06-22T12:30:52.434Z,28.16
2023-06-22T12:35:57.271Z,28.15
2023-06-22T12:43:53.134Z,28.12
2023-06-22T12:46:38.780Z,27.95
2023-06-22T12:51:43.719Z,27.79
2023-06-22T12:56:46.730Z,27.69
2023-06-22T13:01:52.406Z,27.70
2023-06-22T13:06:55.311Z,27.63
2023-06-22T13:12:00.987Z,27.61
2023-06-22T13:17:03.939Z,27.77
2023-06-22T13:22:31.723Z,27.92
2023-06-22T13:27:34.506Z,28.00
2023-06-22T13:32:37.538Z,27.97
2023-06-22T13:37:42.447Z,27.91
2023-06-22T13:42:46.422Z,27.81
2023-06-22T13:47:49.167Z,27.59
2023-06-22T13:52:54.186Z,27.32
2023-06-22T13:57:56.876Z,27.18
2023-06-22T14:02:59.593Z,27.12
2023-06-22T14:08:03.951Z,27.12
2023-06-22T14:13:08.154Z,27.19
2023-06-22T14:18:16.206Z,27.20
2023-06-22T14:23:19.020Z,27.14
2023-06-22T14:28:22.161Z,27.21
2023-06-22T14:33:24.864Z,27.20
2023-06-22T14:38:28.683Z,27.28
2023-06-22T14:43:32.752Z,27.37
2023-06-22T14:48:35.572Z,27.38
2023-06-22T14:53:39.602Z,27.36
2023-06-22T14:58:48.293Z,27.38
2023-06-22T15:03:52.197Z,27.43
2023-06-22T15:08:55.185Z,27.46
2023-06-22T15:14:00.057Z,27.47
2023-06-22T15:19:03.147Z,27.45
2023-06-22T15:24:06.078Z,27.44
2023-06-22T15:29:14.970Z,27.38
2023-06-22T15:34:22.404Z,27.22
2023-06-22T15:39:35.006Z,27.09
2023-06-22T15:44:37.869Z,27.02
2023-06-22T15:49:40.575Z,26.93
2023-06-22T15:54:47.113Z,26.82
2023-06-22T15:59:51.596Z,26.77
2023-06-22T16:04:59.864Z,26.74
2023-06-22T16:10:05.443Z,26.72
2023-06-22T16:15:09.064Z,26.69
2023-06-22T16:20:27.205Z,26.64
2023-06-22T16:25:32.462Z,26.54
2023-06-22T16:30:35.423Z,26.47
2023-06-22T16:35:40.138Z,26.40
2023-06-22T16:40:42.920Z,26.37
2023-06-22T16:45:45.629Z,26.30
2023-06-22T16:50:48.320Z,26.22
2023-06-22T16:55:56.039Z,26.16
2023-06-22T17:01:00.492Z,26.11
2023-06-22T17:06:04.449Z,25.97
2023-06-22T17:11:09.645Z,25.84
2023-06-22T17:16:13.271Z,25.78
2023-06-22T17:21:23.901Z,25.70
2023-06-22T17:26:29.064Z,25.63
2023-06-22T17:31:44.547Z,25.59
2023-06-22T17:36:52.970Z,25.53
2023-06-22T17:41:55.927Z,25.45
2023-06-22T17:47:00.049Z,25.34
2023-06-22T17:52:02.938Z,25.23
2023-06-22T17:57:17.324Z,25.13
2023-06-22T18:02:26.687Z,25.01
2023-06-22T18:07:33.401Z,24.91
2023-06-22T18:12:44.700Z,24.82
2023-06-22T18:17:52.068Z,24.72
2023-06-22T18:23:01.598Z,24.55
2023-06-22T18:28:10.691Z,24.22
2023-06-22T18:33:13.773Z,23.92
2023-06-22T18:38:17.173Z,23.65
2023-06-22T18:43:27.039Z,23.43
2023-06-22T18:48:29.667Z,23.23
2023-06-22T18:53:32.478Z,23.05
2023-06-22T18:58:35.283Z,22.86
2023-06-22T19:03:43.217Z,22.67
2023-06-22T19:09:15.598Z,22.44
2023-06-22T19:14:22.856Z,22.18
2023-06-22T19:19:25.631Z,21.95
2023-06-22T19:24:47.989Z,22.71
2023-06-22T19:29:55.317Z,24.14
2023-06-22T19:35:00.339Z,23.00
2023-06-22T19:40:07.192Z,22.26
2023-06-22T19:45:16.466Z,21.76
2023-06-22T19:50:19.315Z,21.40
2023-06-22T19:55:23.641Z,21.11
2023-06-22T20:00:26.759Z,20.88
2023-06-22T20:05:29.909Z,20.90
2023-06-22T20:10:39.477Z,23.43
2023-06-22T20:15:48.091Z,23.27
2023-06-22T20:20:53.420Z,22.13
2023-06-22T20:25:59.026Z,21.37
2023-06-22T20:31:12.684Z,20.92
2023-06-22T20:36:17.786Z,22.65
2023-06-22T20:41:20.727Z,22.18
2023-06-22T20:46:25.951Z,21.11
2023-06-22T20:51:28.856Z,20.44
2023-06-22T20:56:34.098Z,22.15
2023-06-22T21:01:37.110Z,22.51
2023-06-22T21:06:40.129Z,21.12
2023-06-22T21:11:42.884Z,20.78
2023-06-22T21:16:48.938Z,22.75
2023-06-22T21:21:52.131Z,21.51
2023-06-22T21:26:55.080Z,20.43
2023-06-22T21:31:58.045Z,20.00
2023-06-22T21:37:01.164Z,22.23
2023-06-22T21:42:07.124Z,22.03
2023-06-22T21:47:10.563Z,20.67
2023-06-22T21:52:15.748Z,19.90
2023-06-22T21:57:23.095Z,20.81
2023-06-22T22:02:26.978Z,22.00
2023-06-22T22:07:31.478Z,20.62
2023-06-22T22:12:35.706Z,19.73
2023-06-22T22:17:38.611Z,20.44
2023-06-22T22:22:41.744Z,22.22
2023-06-22T22:27:46.837Z,22.47
2023-06-22T22:32:50.028Z,21.00
2023-06-22T22:37:55.372Z,20.07
2023-06-22T22:43:00.333Z,19.72
2023-06-22T22:48:05.911Z,21.62
2023-06-22T22:53:11.450Z,20.79
2023-06-22T22:58:16.998Z,19.53
2023-06-22T23:03:19.897Z,18.80
2023-06-22T23:08:24.495Z,18.31
2023-06-22T23:13:28.488Z,19.24
2023-06-22T23:18:32.788Z,21.93
2023-06-22T23:23:37.536Z,22.16
2023-06-22T23:28:46.022Z,20.42
2023-06-22T23:33:49.307Z,19.34
2023-06-22T23:38:54.579Z,20.10
2023-06-22T23:43:57.768Z,22.42
2023-06-22T23:49:03.365Z,21.46
2023-06-22T23:54:06.250Z,19.74
2023-06-22T23:59:09.654Z,19.91
